sensor_id;sensor_type;location;lat;lon;timestamp;temperature;humidity
15609;DHT22;64278;45.642;13.756;2023-03-01T00:01:11;21.50;48.50
15609;DHT22;64278;45.642;13.756;2023-03-01T00:03:37;21.50;48.60
15609;DHT22;64278;45.642;13.756;2023-03-01T00:06:03;21.50;48.60
15609;DHT22;64278;45.642;13.756;2023-03-01T00:08:30;21.50;48.60
15609;DHT22;64278;45.642;13.756;2023-03-01T00:13:30;21.50;48.60
15609;DHT22;64278;45.642;13.756;2023-03-01T00:15:55;21.50;48.60
15609;DHT22;64278;45.642;13.756;2023-03-01T00:18:21;21.50;48.60
15609;DHT22;64278;45.642;13.756;2023-03-01T00:20:54;21.50;48.60
15609;DHT22;64278;45.642;13.756;2023-03-01T00:23:20;21.40;48.60
15609;DHT22;64278;45.642;13.756;2023-03-01T00:25:46;21.40;48.60
15609;DHT22;64278;45.642;13.756;2023-03-01T00:28:12;21.40;48.60
15609;DHT22;64278;45.642;13.756;2023-03-01T00:30:37;21.40;48.60
15609;DHT22;64278;45.642;13.756;2023-03-01T00:33:03;21.40;48.50
15609;DHT22;64278;45.642;13.756;2023-03-01T00:35:29;21.40;48.50
15609;DHT22;64278;45.642;13.756;2023-03-01T00:37:57;21.40;48.50
15609;DHT22;64278;45.642;13.756;2023-03-01T00:40:24;21.40;48.50
15609;DHT22;64278;45.642;13.756;2023-03-01T00:42:50;21.40;48.50
15609;DHT22;64278;45.642;13.756;2023-03-01T00:45:16;21.30;48.40
15609;DHT22;64278;45.642;13.756;2023-03-01T00:47:42;21.30;48.40
15609;DHT22;64278;45.642;13.756;2023-03-01T00:50:08;21.30;48.40
15609;DHT22;64278;45.642;13.756;2023-03-01T00:52:34;21.30;48.30
15609;DHT22;64278;45.642;13.756;2023-03-01T00:55:00;21.30;48.40
15609;DHT22;64278;45.642;13.756;2023-03-01T00:57:25;21.30;48.30
15609;DHT22;64278;45.642;13.756;2023-03-01T00:59:51;21.30;48.30
15609;DHT22;64278;45.642;13.756;2023-03-01T01:02:18;21.20;48.00
15609;DHT22;64278;45.642;13.756;2023-03-01T01:04:44;21.20;48.00
15609;DHT22;64278;45.642;13.756;2023-03-01T01:07:10;21.20;48.10
15609;DHT22;64278;45.642;13.756;2023-03-01T01:09:36;21.20;48.20
15609;DHT22;64278;45.642;13.756;2023-03-01T01:12:02;21.20;48.10
15609;DHT22;64278;45.642;13.756;2023-03-01T01:14:28;21.20;48.20
15609;DHT22;64278;45.642;13.756;2023-03-01T01:16:54;21.20;48.10
15609;DHT22;64278;45.642;13.756;2023-03-01T01:19:20;21.10;47.90
15609;DHT22;64278;45.642;13.756;2023-03-01T01:21:46;21.10;48.00
15609;DHT22;64278;45.642;13.756;2023-03-01T01:24:14;21.10;48.00
15609;DHT22;64278;45.642;13.756;2023-03-01T01:26:40;21.10;47.90
15609;DHT22;64278;45.642;13.756;2023-03-01T01:29:06;21.10;47.90
15609;DHT22;64278;45.642;13.756;2023-03-01T01:31:33;21.10;47.90
15609;DHT22;64278;45.642;13.756;2023-03-01T01:34:02;21.10;47.90
15609;DHT22;64278;45.642;13.756;2023-03-01T01:36:28;21.10;47.80
15609;DHT22;64278;45.642;13.756;2023-03-01T01:38:54;21.10;47.90
15609;DHT22;64278;45.642;13.756;2023-03-01T01:41:21;21.10;47.90
15609;DHT22;64278;45.642;13.756;2023-03-01T01:43:49;21.10;47.80
15609;DHT22;64278;45.642;13.756;2023-03-01T01:46:39;21.00;47.70
15609;DHT22;64278;45.642;13.756;2023-03-01T01:52:14;21.00;47.80
15609;DHT22;64278;45.642;13.756;2023-03-01T01:54:56;21.00;47.80
15609;DHT22;64278;45.642;13.756;2023-03-01T01:57:31;21.00;47.90
15609;DHT22;64278;45.642;13.756;2023-03-01T02:00:02;21.00;47.90
15609;DHT22;64278;45.642;13.756;2023-03-01T02:02:28;21.00;47.80
15609;DHT22;64278;45.642;13.756;2023-03-01T02:05:01;21.00;47.80
15609;DHT22;64278;45.642;13.756;2023-03-01T02:07:29;20.90;47.70
15609;DHT22;64278;45.642;13.756;2023-03-01T02:09:55;21.00;47.80
15609;DHT22;64278;45.642;13.756;2023-03-01T02:12:24;20.90;47.80
15609;DHT22;64278;45.642;13.756;2023-03-01T02:14:50;20.90;47.70
15609;DHT22;64278;45.642;13.756;2023-03-01T02:17:17;20.90;47.70
15609;DHT22;64278;45.642;13.756;2023-03-01T02:22:24;20.90;47.80
15609;DHT22;64278;45.642;13.756;2023-03-01T02:28:16;20.90;47.80
15609;DHT22;64278;45.642;13.756;2023-03-01T02:30:48;20.90;47.80
15609;DHT22;64278;45.642;13.756;2023-03-01T02:33:35;20.90;47.90
15609;DHT22;64278;45.642;13.756;2023-03-01T02:36:04;20.90;47.90
15609;DHT22;64278;45.642;13.756;2023-03-01T02:38:32;20.80;47.80
15609;DHT22;64278;45.642;13.756;2023-03-01T02:40:58;20.80;47.90
15609;DHT22;64278;45.642;13.756;2023-03-01T02:43:29;20.80;47.90
15609;DHT22;64278;45.642;13.756;2023-03-01T02:45:59;20.80;47.80
15609;DHT22;64278;45.642;13.756;2023-03-01T02:48:27;20.80;47.80
15609;DHT22;64278;45.642;13.756;2023-03-01T02:51:12;20.80;47.80
15609;DHT22;64278;45.642;13.756;2023-03-01T02:53:48;20.80;47.80
15609;DHT22;64278;45.642;13.756;2023-03-01T02:56:15;20.80;47.80
15609;DHT22;64278;45.642;13.756;2023-03-01T02:58:42;20.80;47.80
15609;DHT22;64278;45.642;13.756;2023-03-01T03:01:13;20.80;47.70
15609;DHT22;64278;45.642;13.756;2023-03-01T03:03:40;20.80;47.80
15609;DHT22;64278;45.642;13.756;2023-03-01T03:06:06;20.70;47.70
15609;DHT22;64278;45.642;13.756;2023-03-01T03:08:32;20.70;47.70
15609;DHT22;64278;45.642;13.756;2023-03-01T03:10:58;20.70;47.80
15609;DHT22;64278;45.642;13.756;2023-03-01T03:13:23;20.70;47.70
15609;DHT22;64278;45.642;13.756;2023-03-01T03:15:54;20.70;47.70
15609;DHT22;64278;45.642;13.756;2023-03-01T03:18:21;20.70;47.80
15609;DHT22;64278;45.642;13.756;2023-03-01T03:20:47;20.70;47.70
15609;DHT22;64278;45.642;13.756;2023-03-01T03:23:19;20.70;47.60
15609;DHT22;64278;45.642;13.756;2023-03-01T03:25:47;20.70;47.70
15609;DHT22;64278;45.642;13.756;2023-03-01T03:28:12;20.70;47.70
15609;DHT22;64278;45.642;13.756;2023-03-01T03:30:39;20.70;47.80
15609;DHT22;64278;45.642;13.756;2023-03-01T03:33:06;20.60;47.70
15609;DHT22;64278;45.642;13.756;2023-03-01T03:35:37;20.70;47.70
15609;DHT22;64278;45.642;13.756;2023-03-01T03:38:06;20.60;47.70
15609;DHT22;64278;45.642;13.756;2023-03-01T03:43:01;20.60;47.80
15609;DHT22;64278;45.642;13.756;2023-03-01T03:45:27;20.60;47.80
15609;DHT22;64278;45.642;13.756;2023-03-01T03:47:53;20.60;47.70
15609;DHT22;64278;45.642;13.756;2023-03-01T03:50:18;20.60;47.80
15609;DHT22;64278;45.642;13.756;2023-03-01T03:52:44;20.60;47.80
15609;DHT22;64278;45.642;13.756;2023-03-01T03:55:11;20.60;47.80
15609;DHT22;64278;45.642;13.756;2023-03-01T03:57:40;20.60;47.80
15609;DHT22;64278;45.642;13.756;2023-03-01T04:00:08;20.60;47.90
15609;DHT22;64278;45.642;13.756;2023-03-01T04:02:42;20.50;47.80
15609;DHT22;64278;45.642;13.756;2023-03-01T04:05:09;20.50;47.80
15609;DHT22;64278;45.642;13.756;2023-03-01T04:07:36;20.50;47.80
15609;DHT22;64278;45.642;13.756;2023-03-01T04:10:07;20.50;47.80
15609;DHT22;64278;45.642;13.756;2023-03-01T04:12:34;20.50;47.80
15609;DHT22;64278;45.642;13.756;2023-03-01T04:15:01;20.50;47.70
15609;DHT22;64278;45.642;13.756;2023-03-01T04:17:27;20.50;47.60
15609;DHT22;64278;45.642;13.756;2023-03-01T04:19:52;20.50;47.70
15609;DHT22;64278;45.642;13.756;2023-03-01T04:22:18;20.50;47.70
15609;DHT22;64278;45.642;13.756;2023-03-01T04:24:44;20.50;47.70
15609;DHT22;64278;45.642;13.756;2023-03-01T04:27:11;20.50;47.70
15609;DHT22;64278;45.642;13.756;2023-03-01T04:29:37;20.40;47.60
15609;DHT22;64278;45.642;13.756;2023-03-01T04:32:03;20.50;47.60
15609;DHT22;64278;45.642;13.756;2023-03-01T04:34:30;20.40;47.60
15609;DHT22;64278;45.642;13.756;2023-03-01T04:36:55;20.40;47.60
15609;DHT22;64278;45.642;13.756;2023-03-01T04:39:21;20.40;47.60
15609;DHT22;64278;45.642;13.756;2023-03-01T04:41:47;20.40;47.60
15609;DHT22;64278;45.642;13.756;2023-03-01T04:44:12;20.40;47.70
15609;DHT22;64278;45.642;13.756;2023-03-01T04:46:38;20.40;47.60
15609;DHT22;64278;45.642;13.756;2023-03-01T04:49:04;20.40;47.60
15609;DHT22;64278;45.642;13.756;2023-03-01T04:51:30;20.40;47.60
15609;DHT22;64278;45.642;13.756;2023-03-01T04:53:58;20.40;47.60
15609;DHT22;64278;45.642;13.756;2023-03-01T04:56:23;20.40;47.60
15609;DHT22;64278;45.642;13.756;2023-03-01T04:58:49;20.40;47.60
15609;DHT22;64278;45.642;13.756;2023-03-01T05:01:20;20.40;47.60
15609;DHT22;64278;45.642;13.756;2023-03-01T05:03:51;20.40;47.50
15609;DHT22;64278;45.642;13.756;2023-03-01T05:06:19;20.40;47.50
15609;DHT22;64278;45.642;13.756;2023-03-01T05:08:45;20.40;47.50
15609;DHT22;64278;45.642;13.756;2023-03-01T05:11:11;20.30;47.50
15609;DHT22;64278;45.642;13.756;2023-03-01T05:13:38;20.40;47.60
15609;DHT22;64278;45.642;13.756;2023-03-01T05:16:05;20.30;47.50
15609;DHT22;64278;45.642;13.756;2023-03-01T05:18:32;20.30;47.40
15609;DHT22;64278;45.642;13.756;2023-03-01T05:23:31;20.30;47.40
15609;DHT22;64278;45.642;13.756;2023-03-01T05:26:01;20.30;47.40
15609;DHT22;64278;45.642;13.756;2023-03-01T05:28:29;20.30;47.30
15609;DHT22;64278;45.642;13.756;2023-03-01T05:30:55;20.30;47.30
15609;DHT22;64278;45.642;13.756;2023-03-01T05:33:21;20.30;47.20
15609;DHT22;64278;45.642;13.756;2023-03-01T05:35:48;20.30;47.30
15609;DHT22;64278;45.642;13.756;2023-03-01T05:38:15;20.30;47.40
15609;DHT22;64278;45.642;13.756;2023-03-01T05:40:42;20.30;47.30
15609;DHT22;64278;45.642;13.756;2023-03-01T05:43:09;20.30;47.40
15609;DHT22;64278;45.642;13.756;2023-03-01T05:45:36;20.20;47.30
15609;DHT22;64278;45.642;13.756;2023-03-01T05:48:03;20.20;47.40
15609;DHT22;64278;45.642;13.756;2023-03-01T05:50:34;20.20;47.50
15609;DHT22;64278;45.642;13.756;2023-03-01T05:55:28;20.20;47.40
15609;DHT22;64278;45.642;13.756;2023-03-01T05:57:54;20.20;47.40
15609;DHT22;64278;45.642;13.756;2023-03-01T06:00:21;20.20;47.40
15609;DHT22;64278;45.642;13.756;2023-03-01T06:02:50;20.20;47.40
15609;DHT22;64278;45.642;13.756;2023-03-01T06:05:17;20.20;47.40
15609;DHT22;64278;45.642;13.756;2023-03-01T06:07:43;20.20;47.40
15609;DHT22;64278;45.642;13.756;2023-03-01T06:10:11;20.20;47.30
15609;DHT22;64278;45.642;13.756;2023-03-01T06:12:38;20.20;47.30
15609;DHT22;64278;45.642;13.756;2023-03-01T06:15:05;20.20;47.40
15609;DHT22;64278;45.642;13.756;2023-03-01T06:17:33;20.20;47.40
15609;DHT22;64278;45.642;13.756;2023-03-01T06:20:08;20.20;47.40
15609;DHT22;64278;45.642;13.756;2023-03-01T06:22:34;20.20;47.40
15609;DHT22;64278;45.642;13.756;2023-03-01T06:25:00;20.10;47.30
15609;DHT22;64278;45.642;13.756;2023-03-01T06:27:25;20.10;47.30
15609;DHT22;64278;45.642;13.756;2023-03-01T06:29:52;20.10;47.40
15609;DHT22;64278;45.642;13.756;2023-03-01T06:32:17;20.10;47.40
15609;DHT22;64278;45.642;13.756;2023-03-01T06:34:43;20.10;47.30
15609;DHT22;64278;45.642;13.756;2023-03-01T06:37:09;20.10;47.40
15609;DHT22;64278;45.642;13.756;2023-03-01T06:39:35;20.10;47.30
15609;DHT22;64278;45.642;13.756;2023-03-01T06:42:01;20.10;47.40
15609;DHT22;64278;45.642;13.756;2023-03-01T06:44:26;20.10;47.50
15609;DHT22;64278;45.642;13.756;2023-03-01T06:46:52;20.10;47.40
15609;DHT22;64278;45.642;13.756;2023-03-01T06:49:18;20.10;47.40
15609;DHT22;64278;45.642;13.756;2023-03-01T06:51:45;20.10;47.40
15609;DHT22;64278;45.642;13.756;2023-03-01T06:54:11;20.10;47.50
15609;DHT22;64278;45.642;13.756;2023-03-01T06:56:37;20.10;47.50
15609;DHT22;64278;45.642;13.756;2023-03-01T06:59:02;20.10;47.50
15609;DHT22;64278;45.642;13.756;2023-03-01T07:01:29;20.10;47.50
15609;DHT22;64278;45.642;13.756;2023-03-01T07:03:55;20.00;47.40
15609;DHT22;64278;45.642;13.756;2023-03-01T07:06:21;20.10;47.40
15609;DHT22;64278;45.642;13.756;2023-03-01T07:08:47;20.00;47.40
15609;DHT22;64278;45.642;13.756;2023-03-01T07:11:13;20.00;47.40
15609;DHT22;64278;45.642;13.756;2023-03-01T07:13:39;20.00;47.40
15609;DHT22;64278;45.642;13.756;2023-03-01T07:16:04;20.00;47.40
15609;DHT22;64278;45.642;13.756;2023-03-01T07:18:30;20.00;46.10
15609;DHT22;64278;45.642;13.756;2023-03-01T07:20:56;20.00;44.30
15609;DHT22;64278;45.642;13.756;2023-03-01T07:23:22;19.90;46.00
15609;DHT22;64278;45.642;13.756;2023-03-01T07:25:54;19.90;46.10
15609;DHT22;64278;45.642;13.756;2023-03-01T07:28:20;19.90;46.10
15609;DHT22;64278;45.642;13.756;2023-03-01T07:30:47;19.90;46.00
15609;DHT22;64278;45.642;13.756;2023-03-01T07:33:13;19.90;46.20
15609;DHT22;64278;45.642;13.756;2023-03-01T07:35:38;19.90;46.20
15609;DHT22;64278;45.642;13.756;2023-03-01T07:38:04;19.90;46.30
15609;DHT22;64278;45.642;13.756;2023-03-01T07:40:30;19.90;46.10
15609;DHT22;64278;45.642;13.756;2023-03-01T07:42:58;19.90;46.20
15609;DHT22;64278;45.642;13.756;2023-03-01T07:45:25;19.80;46.20
15609;DHT22;64278;45.642;13.756;2023-03-01T07:47:51;19.80;46.20
15609;DHT22;64278;45.642;13.756;2023-03-01T07:50:18;19.80;46.20
15609;DHT22;64278;45.642;13.756;2023-03-01T07:52:45;19.80;46.20
15609;DHT22;64278;45.642;13.756;2023-03-01T07:55:11;19.80;46.30
15609;DHT22;64278;45.642;13.756;2023-03-01T07:57:37;19.80;46.10
15609;DHT22;64278;45.642;13.756;2023-03-01T08:00:03;19.80;46.10
15609;DHT22;64278;45.642;13.756;2023-03-01T08:02:29;19.80;46.20
15609;DHT22;64278;45.642;13.756;2023-03-01T08:04:55;19.80;46.30
15609;DHT22;64278;45.642;13.756;2023-03-01T08:07:21;19.80;46.20
15609;DHT22;64278;45.642;13.756;2023-03-01T08:09:47;19.80;46.10
15609;DHT22;64278;45.642;13.756;2023-03-01T08:12:12;19.80;46.20
15609;DHT22;64278;45.642;13.756;2023-03-01T08:14:38;19.80;46.20
15609;DHT22;64278;45.642;13.756;2023-03-01T08:17:03;19.80;46.20
15609;DHT22;64278;45.642;13.756;2023-03-01T08:19:29;19.90;46.20
15609;DHT22;64278;45.642;13.756;2023-03-01T08:21:55;19.90;46.10
15609;DHT22;64278;45.642;13.756;2023-03-01T08:24:23;20.00;46.10
15609;DHT22;64278;45.642;13.756;2023-03-01T08:26:49;20.10;46.10
15609;DHT22;64278;45.642;13.756;2023-03-01T08:29:15;20.10;46.00
15609;DHT22;64278;45.642;13.756;2023-03-01T08:31:41;20.20;46.00
15609;DHT22;64278;45.642;13.756;2023-03-01T08:34:09;20.30;45.90
15609;DHT22;64278;45.642;13.756;2023-03-01T08:36:39;20.30;45.90
15609;DHT22;64278;45.642;13.756;2023-03-01T08:39:06;20.40;45.80
15609;DHT22;64278;45.642;13.756;2023-03-01T08:41:32;20.40;45.70
15609;DHT22;64278;45.642;13.756;2023-03-01T08:43:58;20.40;45.70
15609;DHT22;64278;45.642;13.756;2023-03-01T08:46:32;20.40;45.80
15609;DHT22;64278;45.642;13.756;2023-03-01T08:48:59;20.50;45.70
15609;DHT22;64278;45.642;13.756;2023-03-01T08:51:25;20.50;45.70
15609;DHT22;64278;45.642;13.756;2023-03-01T08:53:52;20.50;45.70
15609;DHT22;64278;45.642;13.756;2023-03-01T08:56:18;20.50;45.70
15609;DHT22;64278;45.642;13.756;2023-03-01T08:58:46;20.60;45.80
15609;DHT22;64278;45.642;13.756;2023-03-01T09:01:14;20.60;45.90
15609;DHT22;64278;45.642;13.756;2023-03-01T09:03:41;20.60;45.90
15609;DHT22;64278;45.642;13.756;2023-03-01T09:06:07;20.60;45.90
15609;DHT22;64278;45.642;13.756;2023-03-01T09:08:42;20.70;45.90
15609;DHT22;64278;45.642;13.756;2023-03-01T09:11:10;20.70;46.00
15609;DHT22;64278;45.642;13.756;2023-03-01T09:13:36;20.70;46.00
15609;DHT22;64278;45.642;13.756;2023-03-01T09:16:03;20.70;46.00
15609;DHT22;64278;45.642;13.756;2023-03-01T09:18:30;20.80;46.10
15609;DHT22;64278;45.642;13.756;2023-03-01T09:21:23;20.80;46.00
15609;DHT22;64278;45.642;13.756;2023-03-01T09:23:49;20.80;45.80
15609;DHT22;64278;45.642;13.756;2023-03-01T09:26:18;20.80;45.80
15609;DHT22;64278;45.642;13.756;2023-03-01T09:28:45;20.80;45.70
15609;DHT22;64278;45.642;13.756;2023-03-01T09:31:12;20.80;45.60
15609;DHT22;64278;45.642;13.756;2023-03-01T09:33:39;20.80;45.60
15609;DHT22;64278;45.642;13.756;2023-03-01T09:36:11;20.80;45.60
15609;DHT22;64278;45.642;13.756;2023-03-01T09:38:37;20.80;45.50
15609;DHT22;64278;45.642;13.756;2023-03-01T09:41:08;20.80;45.50
15609;DHT22;64278;45.642;13.756;2023-03-01T09:43:46;20.80;45.20
15609;DHT22;64278;45.642;13.756;2023-03-01T09:46:13;20.70;44.60
15609;DHT22;64278;45.642;13.756;2023-03-01T09:48:46;20.70;45.00
15609;DHT22;64278;45.642;13.756;2023-03-01T09:51:18;20.70;45.20
15609;DHT22;64278;45.642;13.756;2023-03-01T09:53:45;20.70;44.60
15609;DHT22;64278;45.642;13.756;2023-03-01T09:56:19;20.80;44.90
15609;DHT22;64278;45.642;13.756;2023-03-01T09:58:54;20.80;44.70
15609;DHT22;64278;45.642;13.756;2023-03-01T10:01:28;20.80;44.50
15609;DHT22;64278;45.642;13.756;2023-03-01T10:09:37;20.90;46.30
15609;DHT22;64278;45.642;13.756;2023-03-01T10:12:15;20.90;46.90
15609;DHT22;64278;45.642;13.756;2023-03-01T10:14:55;20.90;47.50
15609;DHT22;64278;45.642;13.756;2023-03-01T10:17:37;20.90;47.90
15609;DHT22;64278;45.642;13.756;2023-03-01T10:23:03;20.90;48.20
15609;DHT22;64278;45.642;13.756;2023-03-01T10:28:17;20.90;48.50
15609;DHT22;64278;45.642;13.756;2023-03-01T10:30:44;20.90;48.40
15609;DHT22;64278;45.642;13.756;2023-03-01T10:33:17;21.00;48.50
15609;DHT22;64278;45.642;13.756;2023-03-01T10:35:44;20.90;48.30
15609;DHT22;64278;45.642;13.756;2023-03-01T10:38:13;20.90;48.30
15609;DHT22;64278;45.642;13.756;2023-03-01T10:40:56;21.00;48.30
15609;DHT22;64278;45.642;13.756;2023-03-01T10:43:32;21.00;48.30
15609;DHT22;64278;45.642;13.756;2023-03-01T10:46:23;21.00;48.20
15609;DHT22;64278;45.642;13.756;2023-03-01T10:49:20;21.00;48.30
15609;DHT22;64278;45.642;13.756;2023-03-01T10:51:48;21.00;48.40
15609;DHT22;64278;45.642;13.756;2023-03-01T10:57:03;21.00;48.30
15609;DHT22;64278;45.642;13.756;2023-03-01T10:59:34;21.00;48.40
15609;DHT22;64278;45.642;13.756;2023-03-01T11:04:35;21.00;48.50
15609;DHT22;64278;45.642;13.756;2023-03-01T11:07:01;21.00;48.50
15609;DHT22;64278;45.642;13.756;2023-03-01T11:09:31;21.00;48.50
15609;DHT22;64278;45.642;13.756;2023-03-01T11:12:03;21.00;48.50
15609;DHT22;64278;45.642;13.756;2023-03-01T11:14:35;21.00;48.60
15609;DHT22;64278;45.642;13.756;2023-03-01T11:17:14;21.00;48.50
15609;DHT22;64278;45.642;13.756;2023-03-01T11:19:41;21.00;48.50
15609;DHT22;64278;45.642;13.756;2023-03-01T11:22:14;21.00;48.50
15609;DHT22;64278;45.642;13.756;2023-03-01T11:24:52;21.10;48.50
15609;DHT22;64278;45.642;13.756;2023-03-01T11:27:33;21.00;48.50
15609;DHT22;64278;45.642;13.756;2023-03-01T11:39:12;21.10;48.70
15609;DHT22;64278;45.642;13.756;2023-03-01T11:41:41;21.10;48.80
15609;DHT22;64278;45.642;13.756;2023-03-01T11:44:36;21.10;48.80
15609;DHT22;64278;45.642;13.756;2023-03-01T12:03:22;21.20;49.00
15609;DHT22;64278;45.642;13.756;2023-03-01T14:05:22;21.30;52.50
15609;DHT22;64278;45.642;13.756;2023-03-01T14:07:51;21.40;53.10
15609;DHT22;64278;45.642;13.756;2023-03-01T14:10:17;21.30;53.40
15609;DHT22;64278;45.642;13.756;2023-03-01T14:13:38;21.30;53.60
15609;DHT22;64278;45.642;13.756;2023-03-01T14:15:43;21.40;54.00
15609;DHT22;64278;45.642;13.756;2023-03-01T14:18:25;21.30;53.90
15609;DHT22;64278;45.642;13.756;2023-03-01T14:20:53;21.30;54.00
15609;DHT22;64278;45.642;13.756;2023-03-01T14:23:21;21.30;53.90
15609;DHT22;64278;45.642;13.756;2023-03-01T14:25:55;21.30;53.80
15609;DHT22;64278;45.642;13.756;2023-03-01T14:28:24;21.30;53.70
15609;DHT22;64278;45.642;13.756;2023-03-01T14:30:54;21.30;53.60
15609;DHT22;64278;45.642;13.756;2023-03-01T14:38:34;21.20;53.80
15609;DHT22;64278;45.642;13.756;2023-03-01T14:41:12;21.20;53.10
15609;DHT22;64278;45.642;13.756;2023-03-01T14:43:44;21.20;53.00
15609;DHT22;64278;45.642;13.756;2023-03-01T14:46:40;21.20;52.90
15609;DHT22;64278;45.642;13.756;2023-03-01T14:51:41;21.20;52.60
15609;DHT22;64278;45.642;13.756;2023-03-01T14:54:27;21.20;52.50
15609;DHT22;64278;45.642;13.756;2023-03-01T14:56:58;21.20;52.40
15609;DHT22;64278;45.642;13.756;2023-03-01T14:59:25;21.20;52.20
15609;DHT22;64278;45.642;13.756;2023-03-01T15:01:52;21.20;52.20
15609;DHT22;64278;45.642;13.756;2023-03-01T15:04:19;21.20;52.20
15609;DHT22;64278;45.642;13.756;2023-03-01T15:06:47;21.10;52.20
15609;DHT22;64278;45.642;13.756;2023-03-01T15:09:16;21.10;52.20
15609;DHT22;64278;45.642;13.756;2023-03-01T15:11:43;21.10;52.00
15609;DHT22;64278;45.642;13.756;2023-03-01T15:14:29;21.10;52.00
15609;DHT22;64278;45.642;13.756;2023-03-01T15:17:03;21.10;51.80
15609;DHT22;64278;45.642;13.756;2023-03-01T15:19:29;21.10;51.70
15609;DHT22;64278;45.642;13.756;2023-03-01T15:21:55;21.10;51.70
15609;DHT22;64278;45.642;13.756;2023-03-01T15:24:24;21.10;52.00
15609;DHT22;64278;45.642;13.756;2023-03-01T15:26:59;21.00;51.50
15609;DHT22;64278;45.642;13.756;2023-03-01T15:29:31;21.00;51.50
15609;DHT22;64278;45.642;13.756;2023-03-01T15:32:00;21.00;51.40
15609;DHT22;64278;45.642;13.756;2023-03-01T15:34:38;21.00;51.40
15609;DHT22;64278;45.642;13.756;2023-03-01T15:37:06;21.00;51.30
15609;DHT22;64278;45.642;13.756;2023-03-01T15:39:57;21.00;51.10
15609;DHT22;64278;45.642;13.756;2023-03-01T15:47:53;20.90;50.60
15609;DHT22;64278;45.642;13.756;2023-03-01T15:50:27;20.90;50.70
15609;DHT22;64278;45.642;13.756;2023-03-01T15:52:54;20.90;50.70
15609;DHT22;64278;45.642;13.756;2023-03-01T15:55:25;20.90;50.70
15609;DHT22;64278;45.642;13.756;2023-03-01T15:58:05;20.90;50.60
15609;DHT22;64278;45.642;13.756;2023-03-01T16:00:32;20.90;50.50
15609;DHT22;64278;45.642;13.756;2023-03-01T16:02:58;20.90;50.40
15609;DHT22;64278;45.642;13.756;2023-03-01T16:05:30;20.90;50.40
15609;DHT22;64278;45.642;13.756;2023-03-01T16:07:57;20.90;50.40
15609;DHT22;64278;45.642;13.756;2023-03-01T16:10:23;20.90;50.30
15609;DHT22;64278;45.642;13.756;2023-03-01T16:12:50;20.90;50.30
15609;DHT22;64278;45.642;13.756;2023-03-01T16:15:32;20.80;50.30
15609;DHT22;64278;45.642;13.756;2023-03-01T16:17:59;20.90;50.30
15609;DHT22;64278;45.642;13.756;2023-03-01T16:20:26;20.80;50.20
15609;DHT22;64278;45.642;13.756;2023-03-01T16:22:52;20.80;50.20
15609;DHT22;64278;45.642;13.756;2023-03-01T16:25:19;20.90;50.20
15609;DHT22;64278;45.642;13.756;2023-03-01T16:27:46;20.80;50.20
15609;DHT22;64278;45.642;13.756;2023-03-01T16:30:13;20.80;50.20
15609;DHT22;64278;45.642;13.756;2023-03-01T16:32:40;20.80;50.20
15609;DHT22;64278;45.642;13.756;2023-03-01T16:35:07;20.80;50.00
15609;DHT22;64278;45.642;13.756;2023-03-01T16:37:35;20.80;50.10
15609;DHT22;64278;45.642;13.756;2023-03-01T16:40:01;20.80;50.20
15609;DHT22;64278;45.642;13.756;2023-03-01T16:42:27;20.80;50.20
15609;DHT22;64278;45.642;13.756;2023-03-01T16:44:56;20.80;50.20
15609;DHT22;64278;45.642;13.756;2023-03-01T16:47:22;20.90;50.20
15609;DHT22;64278;45.642;13.756;2023-03-01T16:49:51;20.90;50.20
15609;DHT22;64278;45.642;13.756;2023-03-01T16:52:16;21.00;50.10
15609;DHT22;64278;45.642;13.756;2023-03-01T16:54:42;21.00;50.10
15609;DHT22;64278;45.642;13.756;2023-03-01T16:57:08;21.00;50.10
15609;DHT22;64278;45.642;13.756;2023-03-01T16:59:33;21.10;50.10
15609;DHT22;64278;45.642;13.756;2023-03-01T17:01:59;21.20;50.00
15609;DHT22;64278;45.642;13.756;2023-03-01T17:04:24;21.20;49.90
15609;DHT22;64278;45.642;13.756;2023-03-01T17:06:50;21.20;49.90
15609;DHT22;64278;45.642;13.756;2023-03-01T17:09:16;21.20;49.80
15609;DHT22;64278;45.642;13.756;2023-03-01T17:11:42;21.30;49.80
15609;DHT22;64278;45.642;13.756;2023-03-01T17:14:08;21.30;49.70
15609;DHT22;64278;45.642;13.756;2023-03-01T17:16:34;21.30;49.70
15609;DHT22;64278;45.642;13.756;2023-03-01T17:19:00;21.30;49.60
15609;DHT22;64278;45.642;13.756;2023-03-01T17:21:26;21.30;49.60
15609;DHT22;64278;45.642;13.756;2023-03-01T17:23:56;21.30;49.50
15609;DHT22;64278;45.642;13.756;2023-03-01T17:26:22;21.30;49.50
15609;DHT22;64278;45.642;13.756;2023-03-01T17:28:48;21.30;49.40
15609;DHT22;64278;45.642;13.756;2023-03-01T17:31:18;21.30;49.30
15609;DHT22;64278;45.642;13.756;2023-03-01T17:33:44;21.40;49.30
15609;DHT22;64278;45.642;13.756;2023-03-01T17:36:09;21.40;49.30
15609;DHT22;64278;45.642;13.756;2023-03-01T17:38:35;21.40;49.30
15609;DHT22;64278;45.642;13.756;2023-03-01T17:41:02;21.40;49.90
15609;DHT22;64278;45.642;13.756;2023-03-01T17:43:28;21.40;49.20
15609;DHT22;64278;45.642;13.756;2023-03-01T17:45:55;21.40;49.20
15609;DHT22;64278;45.642;13.756;2023-03-01T17:48:21;21.40;49.10
15609;DHT22;64278;45.642;13.756;2023-03-01T17:50:47;21.40;49.10
15609;DHT22;64278;45.642;13.756;2023-03-01T17:53:13;21.40;49.10
15609;DHT22;64278;45.642;13.756;2023-03-01T17:55:41;21.40;49.10
15609;DHT22;64278;45.642;13.756;2023-03-01T17:58:08;21.40;49.10
15609;DHT22;64278;45.642;13.756;2023-03-01T18:00:34;21.50;49.00
15609;DHT22;64278;45.642;13.756;2023-03-01T18:03:00;21.50;49.10
15609;DHT22;64278;45.642;13.756;2023-03-01T18:05:26;21.50;49.10
15609;DHT22;64278;45.642;13.756;2023-03-01T18:07:52;21.50;48.90
15609;DHT22;64278;45.642;13.756;2023-03-01T18:10:18;21.50;48.80
15609;DHT22;64278;45.642;13.756;2023-03-01T18:12:44;21.50;48.80
15609;DHT22;64278;45.642;13.756;2023-03-01T18:15:10;21.50;48.90
15609;DHT22;64278;45.642;13.756;2023-03-01T18:17:36;21.50;48.90
15609;DHT22;64278;45.642;13.756;2023-03-01T18:20:03;21.50;48.90
15609;DHT22;64278;45.642;13.756;2023-03-01T18:22:29;21.50;49.00
15609;DHT22;64278;45.642;13.756;2023-03-01T18:24:55;21.60;49.00
15609;DHT22;64278;45.642;13.756;2023-03-01T18:27:20;21.50;49.00
15609;DHT22;64278;45.642;13.756;2023-03-01T18:29:46;21.60;49.10
15609;DHT22;64278;45.642;13.756;2023-03-01T18:32:12;21.60;49.10
15609;DHT22;64278;45.642;13.756;2023-03-01T18:34:37;21.60;49.10
15609;DHT22;64278;45.642;13.756;2023-03-01T18:37:03;21.60;49.10